Holgate, Ohio
Current Conditions -  °F | °C
As of 1:53 AM on Saturday 25 Oct 2014 (Local Time) from KDFI Reporting Station
Haze Haze  
Wind Chill: 50°   Ceiling: 9000
Heat Index: 50°   Visibility: 5mi
Dew Point: 47°   Wind: 5mph
Humidity: 89%   Direction: 210°SSW
Pressure: 29.97"   Gusts: NA
Location:  41.25°N, 84.13°W
Report Text: KDFI 250553Z AUTO 21004KT 5SM BR BKN090 10/08 A2997 RMK AO2 SLP149 T01000083 10111 20089 56010
Loading
Personal Weather Stations






























Interactive Weather Map New forecast layout! Learn more

10-Day Weather Forecast

Advertisements
Track Severe Weather on mobile